TAF and METAR

METAR for Sleipner Oil Platform

ENSL 191520Z 20031KT 9999 SCT015 BKN060 07/05 Q1016 W05/S4
Report created 19. mar 16:20
wind 31 knots from SSW (200°) visibility > 10km scattered clouds (~50% cover) at 1500 feet broken clouds (~75% cover) at 6000 feet Temperature 7° with dewpoint at 5° (Humidity 87.09%) Pressure 1016 hPa

TAF for Sleipner Oil Platform

TAF ENSL 191100Z 1912/1918 20030KT 9999 FEW010 BKN080 BECMG 1913/1915 BKN008 PROB40 1916/1918 FEW010 SCT030
Report created 19. mar 12:00

between 19. mar 13:00 - 19. mar 19:00

wind 30 knots from SSW (200°) visibility > 10km some clouds (~25% cover) at 1000 feet broken clouds (~75% cover) at 8000 feet

becoming between 19. mar 14:00 - 19. mar 16:00

broken clouds (~75% cover) at 800 feet

probably (~40%) between 19. mar 17:00 - 19. mar 19:00

some clouds (~25% cover) at 1000 feet scattered clouds (~50% cover) at 3000 feet
Sleipner Oil Platform in Norway at 50m

Latest 5 airports